ASP416 KGTF-KMSO
Flight info
| Callsign | ASP416 |
|---|---|
| Flight time | 0h 25m |
| Altitude | 18000 |
| Route | MSO |
| Aircraft | B461/M-SDFGIRWY/LB1 |
Departure
| Time | 2026-04-19 15:52 |
|---|---|
| Airport | Great Falls International Airport (KGTF) |
Arrival
| Time | 2026-04-19 16:17 |
|---|---|
| Airport | Missoula Montana Airport (KMSO) |
| Time | Latitude | Longitude | Altitude | Speed | Heading |
|---|---|---|---|---|---|
| 2026-04-19 15:49 | 47.48283 | -111.35827 | 3675 ft | 0 kts | 179° |
| 2026-04-19 15:50 | 47.48280 | -111.35831 | 3675 ft | 1 kts | 237° |
| 2026-04-19 15:50 | 47.48296 | -111.35852 | 3675 ft | 6 kts | 326° |
| 2026-04-19 15:51 | 47.48349 | -111.35880 | 3674 ft | 11 kts | 0° |
| 2026-04-19 15:51 | 47.48441 | -111.35883 | 3673 ft | 16 kts | 36° |
| 2026-04-19 15:51 | 47.48538 | -111.35762 | 3671 ft | 17 kts | 359° |
| 2026-04-19 15:51 | 47.48569 | -111.35903 | 3671 ft | 17 kts | 256° |
| 2026-04-19 15:52 | 47.48425 | -111.36180 | 3674 ft | 67 kts | 225° |
| 2026-04-19 15:52 | 47.47922 | -111.36923 | 3715 ft | 128 kts | 224° |
| 2026-04-19 15:52 | 47.47296 | -111.37928 | 4171 ft | 142 kts | 227° |
| 2026-04-19 15:52 | 47.46579 | -111.39034 | 4692 ft | 160 kts | 222° |
| 2026-04-19 15:53 | 47.45721 | -111.40226 | 5191 ft | 179 kts | 222° |
| 2026-04-19 15:53 | 47.44774 | -111.41534 | 5650 ft | 202 kts | 222° |
| 2026-04-19 15:53 | 47.43671 | -111.43057 | 6141 ft | 229 kts | 222° |
| 2026-04-19 15:53 | 47.42554 | -111.44909 | 6642 ft | 255 kts | 236° |
| 2026-04-19 15:54 | 47.41765 | -111.47318 | 7134 ft | 272 kts | 251° |
| 2026-04-19 15:54 | 47.41406 | -111.50090 | 7841 ft | 280 kts | 263° |
| 2026-04-19 15:54 | 47.41204 | -111.52933 | 8682 ft | 281 kts | 264° |
| 2026-04-19 15:54 | 47.41030 | -111.55821 | 9417 ft | 285 kts | 264° |
| 2026-04-19 15:55 | 47.40681 | -111.58681 | 10143 ft | 289 kts | 257° |
| 2026-04-19 15:55 | 47.40290 | -111.61594 | 10859 ft | 292 kts | 259° |
| 2026-04-19 15:55 | 47.39832 | -111.64520 | 11550 ft | 295 kts | 254° |
| 2026-04-19 15:55 | 47.39280 | -111.67451 | 12223 ft | 298 kts | 254° |
| 2026-04-19 15:56 | 47.38731 | -111.70377 | 12867 ft | 301 kts | 254° |
| 2026-04-19 15:56 | 47.38171 | -111.73354 | 13494 ft | 304 kts | 254° |
| 2026-04-19 15:56 | 47.37611 | -111.76324 | 14093 ft | 306 kts | 254° |
| 2026-04-19 15:56 | 47.37038 | -111.79354 | 14679 ft | 309 kts | 254° |
| 2026-04-19 15:57 | 47.36460 | -111.82410 | 15246 ft | 312 kts | 254° |
| 2026-04-19 15:57 | 47.35873 | -111.85508 | 15797 ft | 315 kts | 254° |
| 2026-04-19 15:57 | 47.35282 | -111.88618 | 16327 ft | 317 kts | 254° |
| 2026-04-19 15:57 | 47.34683 | -111.91766 | 16842 ft | 320 kts | 254° |
| 2026-04-19 15:58 | 47.34086 | -111.94899 | 17333 ft | 322 kts | 254° |
| 2026-04-19 15:58 | 47.33474 | -111.98106 | 17799 ft | 325 kts | 254° |
| 2026-04-19 15:58 | 47.32855 | -112.01335 | 17939 ft | 340 kts | 254° |
| 2026-04-19 15:58 | 47.32200 | -112.04750 | 17989 ft | 353 kts | 254° |
| 2026-04-19 15:59 | 47.31519 | -112.08295 | 17994 ft | 363 kts | 254° |
| 2026-04-19 15:59 | 47.30833 | -112.11855 | 17993 ft | 364 kts | 254° |
| 2026-04-19 15:59 | 47.30136 | -112.15471 | 17994 ft | 364 kts | 254° |
| 2026-04-19 15:59 | 47.29445 | -112.19046 | 17993 ft | 364 kts | 254° |
| 2026-04-19 16:00 | 47.28758 | -112.22598 | 17994 ft | 364 kts | 254° |
| 2026-04-19 16:00 | 47.28062 | -112.26186 | 17992 ft | 364 kts | 254° |
| 2026-04-19 16:00 | 47.27372 | -112.29738 | 17990 ft | 363 kts | 254° |
| 2026-04-19 16:00 | 47.26676 | -112.33314 | 17990 ft | 363 kts | 254° |
| 2026-04-19 16:01 | 47.25982 | -112.36874 | 17991 ft | 363 kts | 254° |
| 2026-04-19 16:01 | 47.25292 | -112.40409 | 17959 ft | 363 kts | 254° |
| 2026-04-19 16:01 | 47.24589 | -112.44003 | 18034 ft | 359 kts | 254° |
| 2026-04-19 16:01 | 47.23901 | -112.47514 | 18067 ft | 358 kts | 254° |
| 2026-04-19 16:02 | 47.23213 | -112.51017 | 18073 ft | 359 kts | 254° |
| 2026-04-19 16:02 | 47.22521 | -112.54536 | 18074 ft | 359 kts | 254° |
| 2026-04-19 16:02 | 47.21833 | -112.58027 | 18076 ft | 359 kts | 254° |
| 2026-04-19 16:02 | 47.21128 | -112.61599 | 18080 ft | 360 kts | 254° |
| 2026-04-19 16:03 | 47.20436 | -112.65099 | 18084 ft | 360 kts | 253° |
| 2026-04-19 16:03 | 47.19732 | -112.68652 | 18088 ft | 360 kts | 253° |
| 2026-04-19 16:03 | 47.19030 | -112.72191 | 18094 ft | 360 kts | 253° |
| 2026-04-19 16:03 | 47.18326 | -112.75729 | 18102 ft | 360 kts | 253° |
| 2026-04-19 16:04 | 47.17630 | -112.79225 | 18112 ft | 360 kts | 253° |
| 2026-04-19 16:04 | 47.16924 | -112.82762 | 18331 ft | 360 kts | 253° |
| 2026-04-19 16:04 | 47.16224 | -112.86267 | 18373 ft | 361 kts | 253° |
| 2026-04-19 16:04 | 47.15513 | -112.89815 | 18393 ft | 361 kts | 253° |
| 2026-04-19 16:05 | 47.14803 | -112.93353 | 18412 ft | 361 kts | 253° |
| 2026-04-19 16:05 | 47.14099 | -112.96856 | 18431 ft | 361 kts | 253° |
| 2026-04-19 16:05 | 47.13386 | -113.00399 | 18450 ft | 361 kts | 253° |
| 2026-04-19 16:05 | 47.12671 | -113.03943 | 18464 ft | 361 kts | 253° |
| 2026-04-19 16:06 | 47.11957 | -113.07480 | 18473 ft | 360 kts | 253° |
| 2026-04-19 16:06 | 47.11260 | -113.10923 | 18213 ft | 353 kts | 253° |
| 2026-04-19 16:06 | 47.10551 | -113.14413 | 17883 ft | 361 kts | 253° |
| 2026-04-19 16:06 | 47.09833 | -113.17939 | 17553 ft | 362 kts | 253° |
| 2026-04-19 16:07 | 47.09114 | -113.21471 | 17220 ft | 361 kts | 253° |
| 2026-04-19 16:07 | 47.08395 | -113.25002 | 16888 ft | 361 kts | 253° |
| 2026-04-19 16:07 | 47.07684 | -113.28483 | 16559 ft | 360 kts | 253° |
| 2026-04-19 16:07 | 47.06958 | -113.32027 | 16223 ft | 359 kts | 253° |
| 2026-04-19 16:08 | 47.06242 | -113.35523 | 15889 ft | 359 kts | 253° |
| 2026-04-19 16:08 | 47.05529 | -113.38996 | 15555 ft | 356 kts | 253° |
| 2026-04-19 16:08 | 47.04819 | -113.42447 | 15215 ft | 350 kts | 253° |
| 2026-04-19 16:08 | 47.04127 | -113.45807 | 14879 ft | 345 kts | 253° |
| 2026-04-19 16:09 | 47.03433 | -113.49174 | 14536 ft | 341 kts | 253° |
| 2026-04-19 16:09 | 47.02755 | -113.52458 | 14196 ft | 338 kts | 253° |
| 2026-04-19 16:09 | 47.02076 | -113.55738 | 13854 ft | 335 kts | 253° |
| 2026-04-19 16:09 | 47.01407 | -113.58969 | 13514 ft | 333 kts | 253° |
| 2026-04-19 16:10 | 47.00737 | -113.62199 | 13172 ft | 331 kts | 253° |
| 2026-04-19 16:10 | 47.00073 | -113.65398 | 12831 ft | 329 kts | 253° |
| 2026-04-19 16:10 | 46.99414 | -113.68568 | 12482 ft | 312 kts | 253° |
| 2026-04-19 16:10 | 46.98802 | -113.71510 | 12135 ft | 294 kts | 253° |
| 2026-04-19 16:11 | 46.98226 | -113.74278 | 11792 ft | 280 kts | 253° |
| 2026-04-19 16:11 | 46.97671 | -113.76946 | 11450 ft | 268 kts | 253° |
| 2026-04-19 16:11 | 46.97143 | -113.79508 | 11108 ft | 258 kts | 256° |
| 2026-04-19 16:11 | 46.97018 | -113.82038 | 10665 ft | 253 kts | 271° |
| 2026-04-19 16:12 | 46.97037 | -113.84621 | 10124 ft | 254 kts | 269° |
| 2026-04-19 16:12 | 46.97021 | -113.87185 | 9648 ft | 251 kts | 269° |
| 2026-04-19 16:12 | 46.97003 | -113.89729 | 9162 ft | 249 kts | 269° |
| 2026-04-19 16:12 | 46.96986 | -113.92230 | 8689 ft | 248 kts | 269° |
| 2026-04-19 16:13 | 46.96970 | -113.94751 | 8211 ft | 246 kts | 269° |
| 2026-04-19 16:13 | 46.96955 | -113.97201 | 7876 ft | 238 kts | 269° |
| 2026-04-19 16:13 | 46.97029 | -113.99585 | 7550 ft | 232 kts | 278° |
| 2026-04-19 16:13 | 46.97362 | -114.01867 | 7245 ft | 226 kts | 283° |
| 2026-04-19 16:14 | 46.97722 | -114.04081 | 6967 ft | 220 kts | 283° |
| 2026-04-19 16:14 | 46.98066 | -114.06215 | 6700 ft | 206 kts | 283° |
| 2026-04-19 16:14 | 46.98356 | -114.08112 | 6466 ft | 178 kts | 282° |
| 2026-04-19 16:14 | 46.98511 | -114.09788 | 6205 ft | 155 kts | 269° |
| 2026-04-19 16:15 | 46.98304 | -114.11256 | 5864 ft | 142 kts | 250° |
| 2026-04-19 16:15 | 46.97843 | -114.12477 | 5493 ft | 135 kts | 230° |
| 2026-04-19 16:15 | 46.97212 | -114.13432 | 5152 ft | 129 kts | 222° |
| 2026-04-19 16:15 | 46.96539 | -114.14256 | 4790 ft | 125 kts | 217° |
| 2026-04-19 16:16 | 46.95782 | -114.14746 | 4488 ft | 119 kts | 187° |
| 2026-04-19 16:16 | 46.94960 | -114.14537 | 4193 ft | 123 kts | 154° |
| 2026-04-19 16:16 | 46.94310 | -114.13734 | 3906 ft | 122 kts | 134° |
| 2026-04-19 16:16 | 46.93753 | -114.12811 | 3660 ft | 120 kts | 130° |
| 2026-04-19 16:17 | 46.93215 | -114.11890 | 3474 ft | 121 kts | 130° |
| 2026-04-19 16:17 | 46.92665 | -114.10964 | 3263 ft | 119 kts | 130° |
| 2026-04-19 16:17 | 46.92153 | -114.10088 | 3160 ft | 101 kts | 130° |
| 2026-04-19 16:17 | 46.91834 | -114.09544 | 3163 ft | 34 kts | 131° |
| 2026-04-19 16:18 | 46.91819 | -114.09386 | 3163 ft | 15 kts | 33° |
| 2026-04-19 16:18 | 46.91882 | -114.09270 | 3164 ft | 16 kts | 114° |
| 2026-04-19 16:18 | 46.91802 | -114.09127 | 3164 ft | 20 kts | 129° |
| 2026-04-19 16:18 | 46.91837 | -114.08965 | 3164 ft | 19 kts | 40° |
| 2026-04-19 16:19 | 46.91930 | -114.08836 | 3165 ft | 15 kts | 68° |
| 2026-04-19 16:19 | 46.91882 | -114.08704 | 3165 ft | 15 kts | 129° |
| 2026-04-19 16:19 | 46.91817 | -114.08582 | 3165 ft | 13 kts | 128° |
| 2026-04-19 16:19 | 46.91824 | -114.08495 | 3165 ft | 8 kts | 62° |
| 2026-04-19 16:20 | 46.91836 | -114.08464 | 3165 ft | 0 kts | 59° |